createdAt,value
2019-03-11T00:00:09.064Z,87.27
2019-03-11T00:01:09.065Z,86.65
2019-03-11T00:02:09.050Z,87.27
2019-03-11T00:03:09.041Z,87.27
2019-03-11T00:04:10.029Z,86.76
2019-03-11T00:05:09.052Z,86.65
2019-03-11T00:06:09.003Z,86.03
2019-03-11T00:07:08.987Z,86.55
2019-03-11T00:08:09.009Z,86.34
2019-03-11T00:09:08.983Z,86.76
2019-03-11T00:10:08.956Z,86.55
2019-03-11T00:11:08.952Z,86.55
2019-03-11T00:12:08.931Z,86.65
2019-03-11T00:13:08.957Z,86.55
2019-03-11T00:14:08.923Z,86.65
2019-03-11T00:15:08.944Z,86.55
2019-03-11T00:16:08.891Z,86.34
2019-03-11T00:17:08.893Z,86.24
2019-03-11T00:18:08.911Z,87.69
2019-03-11T00:19:08.904Z,87.38
2019-03-11T00:20:08.851Z,86.86
2019-03-11T00:21:08.863Z,86.13
2019-03-11T00:22:08.830Z,87.07
2019-03-11T00:23:08.828Z,86.69
2019-03-11T00:24:08.801Z,86.90
2019-03-11T00:25:08.799Z,86.34
2019-03-11T00:26:08.791Z,87.17
2019-03-11T00:27:08.780Z,86.59
2019-03-11T00:28:08.775Z,85.61
2019-03-11T00:29:08.761Z,86.55
2019-03-11T00:30:08.751Z,86.90
2019-03-11T00:31:08.730Z,86.65
2019-03-11T00:32:08.805Z,86.80
2019-03-11T00:33:08.709Z,86.49
2019-03-11T00:34:08.719Z,86.76
2019-03-11T00:35:08.790Z,86.80
2019-03-11T00:36:08.673Z,86.80
2019-03-11T00:37:08.670Z,86.55
2019-03-11T00:38:08.745Z,86.65
2019-03-11T00:39:08.656Z,86.38
2019-03-11T00:40:08.660Z,86.59
2019-03-11T00:41:08.724Z,85.86
2019-03-11T00:42:08.617Z,85.72
2019-03-11T00:43:08.723Z,85.86
2019-03-11T00:44:08.632Z,86.17
2019-03-11T00:45:08.586Z,86.73
2019-03-11T00:46:08.575Z,86.63
2019-03-11T00:47:08.568Z,86.63
2019-03-11T00:48:08.554Z,86.63
2019-03-11T00:49:08.561Z,86.73
2019-03-11T00:50:08.534Z,86.42
2019-03-11T00:51:08.513Z,86.07
2019-03-11T00:52:08.504Z,86.59
2019-03-11T00:53:08.511Z,85.96
2019-03-11T00:54:08.542Z,86.63
2019-03-11T00:55:08.621Z,86.27
2019-03-11T00:56:08.474Z,86.69
2019-03-11T00:57:08.444Z,86.65
2019-03-11T00:58:08.448Z,85.44
2019-03-11T00:59:08.441Z,85.75
2019-03-11T01:00:08.421Z,86.27
2019-03-11T01:01:08.422Z,85.96
2019-03-11T01:02:08.395Z,86.38
2019-03-11T01:03:08.411Z,86.59
2019-03-11T01:04:08.398Z,85.55
2019-03-11T01:05:08.401Z,86.49
2019-03-11T01:06:08.360Z,85.49
2019-03-11T01:07:08.368Z,86.42
2019-03-11T01:08:08.376Z,85.55
2019-03-11T01:09:08.319Z,85.38
2019-03-11T01:10:08.313Z,85.90
2019-03-11T01:11:08.342Z,84.44
2019-03-11T01:12:08.295Z,86.59
2019-03-11T01:13:08.327Z,85.75
2019-03-11T01:14:08.263Z,85.17
2019-03-11T01:15:08.254Z,84.51
2019-03-11T01:16:08.259Z,84.51
2019-03-11T01:17:08.246Z,84.82
2019-03-11T01:18:08.228Z,84.41
2019-03-11T01:19:08.218Z,84.61
2019-03-11T01:20:08.242Z,84.72
2019-03-11T01:21:08.194Z,84.61
2019-03-11T01:22:08.191Z,85.20
2019-03-11T01:23:08.186Z,85.55
2019-03-11T01:24:08.154Z,84.61
2019-03-11T01:25:08.140Z,85.30
2019-03-11T01:26:08.132Z,84.41
2019-03-11T01:27:08.126Z,84.30
2019-03-11T01:28:08.123Z,84.72
2019-03-11T01:29:08.106Z,84.09
2019-03-11T01:30:08.086Z,84.72
2019-03-11T01:31:08.089Z,84.09
2019-03-11T01:32:08.068Z,84.51
2019-03-11T01:33:08.054Z,85.13
2019-03-11T01:34:08.048Z,83.84
2019-03-11T01:35:08.026Z,83.84
2019-03-11T01:36:08.024Z,83.53
2019-03-11T01:37:08.016Z,82.39
2019-03-11T01:38:08.002Z,83.33
2019-03-11T01:39:08.016Z,83.22
2019-03-11T01:40:07.986Z,84.68
2019-03-11T01:41:07.979Z,83.22
2019-03-11T01:42:07.959Z,83.22
2019-03-11T01:43:07.946Z,83.12
2019-03-11T01:44:07.941Z,83.22
2019-03-11T01:45:07.925Z,83.12
2019-03-11T01:46:07.926Z,83.12
2019-03-11T01:47:07.903Z,83.12
2019-03-11T01:48:07.893Z,84.16
2019-03-11T01:49:07.880Z,84.37
2019-03-11T01:50:07.894Z,83.95
2019-03-11T01:51:07.876Z,84.16
2019-03-11T01:52:07.859Z,84.68
2019-03-11T01:53:07.841Z,84.37
2019-03-11T01:54:07.831Z,84.27
2019-03-11T01:55:07.815Z,84.16
2019-03-11T01:56:07.811Z,84.68
2019-03-11T01:57:07.800Z,84.27
2019-03-11T01:58:07.800Z,84.05
2019-03-11T01:59:07.833Z,84.58
2019-03-11T02:00:07.761Z,83.01
2019-03-11T02:01:07.750Z,83.12
2019-03-11T02:02:07.742Z,82.60
2019-03-11T02:03:07.746Z,82.64
2019-03-11T02:04:07.740Z,83.37
2019-03-11T02:05:07.716Z,83.95
2019-03-11T02:06:07.770Z,84.05
2019-03-11T02:07:07.694Z,83.95
2019-03-11T02:08:07.691Z,83.47
2019-03-11T02:09:07.742Z,83.47
2019-03-11T02:10:07.669Z,83.47
2019-03-11T02:11:07.648Z,82.43
2019-03-11T02:12:07.637Z,83.16
2019-03-11T02:13:07.632Z,83.58
2019-03-11T02:14:07.609Z,83.84
2019-03-11T02:15:07.622Z,83.01
2019-03-11T02:16:07.610Z,83.01
2019-03-11T02:17:07.597Z,83.37
2019-03-11T02:18:07.576Z,83.47
2019-03-11T02:19:07.561Z,82.70
2019-03-11T02:20:07.551Z,83.68
2019-03-11T02:21:07.551Z,83.64
2019-03-11T02:22:07.547Z,84.58
2019-03-11T02:23:07.511Z,83.22
2019-03-11T02:24:07.505Z,83.33
2019-03-11T02:25:07.508Z,83.47
2019-03-11T02:26:07.490Z,81.87
2019-03-11T02:27:07.482Z,82.29
2019-03-11T02:28:07.478Z,82.53
2019-03-11T02:29:07.504Z,82.50
2019-03-11T02:30:07.446Z,83.12
2019-03-11T02:31:07.434Z,83.43
2019-03-11T02:32:07.463Z,82.60
2019-03-11T02:33:07.422Z,82.95
2019-03-11T02:34:07.410Z,83.26
2019-03-11T02:35:07.402Z,83.16
2019-03-11T02:36:07.382Z,83.74
2019-03-11T02:37:07.371Z,82.70
2019-03-11T02:38:07.367Z,83.12
2019-03-11T02:39:07.361Z,82.22
2019-03-11T02:40:07.341Z,82.60
2019-03-11T02:41:07.394Z,83.01
2019-03-11T02:42:07.322Z,83.16
2019-03-11T02:43:07.299Z,82.95
2019-03-11T02:44:07.307Z,82.89
2019-03-11T02:45:07.286Z,82.99
2019-03-11T02:46:07.293Z,83.51
2019-03-11T02:47:07.265Z,84.30
2019-03-11T02:48:07.388Z,84.20
2019-03-11T02:49:07.282Z,83.47
2019-03-11T02:50:07.243Z,84.09
2019-03-11T02:51:07.220Z,83.47
2019-03-11T02:52:07.289Z,83.26
2019-03-11T02:53:07.194Z,83.68
2019-03-11T02:54:07.225Z,84.09
2019-03-11T02:55:07.214Z,84.20
2019-03-11T02:56:07.175Z,84.27
2019-03-11T02:57:07.159Z,84.09
2019-03-11T02:58:07.147Z,83.37
2019-03-11T02:59:07.133Z,83.99
2019-03-11T03:00:07.175Z,84.82
2019-03-11T03:01:07.109Z,85.13
2019-03-11T03:02:07.098Z,84.82
2019-03-11T03:03:07.097Z,84.55
2019-03-11T03:04:07.095Z,84.34
2019-03-11T03:05:07.125Z,84.44
2019-03-11T03:06:07.064Z,86.21
2019-03-11T03:07:07.050Z,85.28
2019-03-11T03:08:07.070Z,86.42
2019-03-11T03:09:07.027Z,86.63
2019-03-11T03:10:07.012Z,86.63
2019-03-11T03:11:07.014Z,86.63
2019-03-11T03:12:06.996Z,86.67
2019-03-11T03:13:06.991Z,86.83
2019-03-11T03:14:06.964Z,86.42
2019-03-11T03:15:06.977Z,86.83
2019-03-11T03:16:06.947Z,86.73
2019-03-11T03:17:06.933Z,86.83
2019-03-11T03:18:06.924Z,86.83
2019-03-11T03:19:06.935Z,86.38
2019-03-11T03:20:06.903Z,86.21
2019-03-11T03:21:06.926Z,86.42
2019-03-11T03:22:06.881Z,86.11
2019-03-11T03:23:06.879Z,86.52
2019-03-11T03:24:06.864Z,86.63
2019-03-11T03:25:06.855Z,86.63
2019-03-11T03:26:06.841Z,86.21
2019-03-11T03:27:06.848Z,86.46
2019-03-11T03:28:07.119Z,87.40
2019-03-11T03:29:06.824Z,87.40
2019-03-11T03:30:06.846Z,87.19
2019-03-11T03:31:06.798Z,88.02
2019-03-11T03:32:06.792Z,86.77
2019-03-11T03:33:06.774Z,88.64
2019-03-11T03:34:06.749Z,88.12
2019-03-11T03:35:06.791Z,88.96
2019-03-11T03:36:06.731Z,88.23
2019-03-11T03:37:06.732Z,87.81
2019-03-11T03:38:06.723Z,88.50
2019-03-11T03:39:06.713Z,87.66
2019-03-11T03:40:06.687Z,87.88
2019-03-11T03:41:06.691Z,87.46
2019-03-11T03:42:06.670Z,88.29
2019-03-11T03:43:06.820Z,88.60
2019-03-11T03:44:06.657Z,88.19
2019-03-11T03:45:06.632Z,87.88
2019-03-11T03:46:18.064Z,87.66
2019-03-11T03:47:07.619Z,87.66
2019-03-11T03:48:06.631Z,87.66
2019-03-11T03:49:06.587Z,87.25
2019-03-11T03:50:06.596Z,87.15
2019-03-11T03:51:06.569Z,86.90
2019-03-11T03:52:06.566Z,86.83
2019-03-11T03:53:06.555Z,86.83
2019-03-11T03:54:06.546Z,86.59
2019-03-11T03:55:06.528Z,86.73
2019-03-11T03:56:06.519Z,87.25
2019-03-11T03:57:06.506Z,87.25
2019-03-11T03:58:06.505Z,88.50
2019-03-11T03:59:06.501Z,88.71
2019-03-11T04:00:06.492Z,87.35
2019-03-11T04:01:06.457Z,88.29
2019-03-11T04:02:06.456Z,88.40
2019-03-11T04:03:06.436Z,88.35
2019-03-11T04:04:06.452Z,88.15
2019-03-11T04:05:06.419Z,87.66
2019-03-11T04:06:06.434Z,87.63
2019-03-11T04:07:06.393Z,87.77
2019-03-11T04:08:06.389Z,87.25
2019-03-11T04:09:06.396Z,88.50
2019-03-11T04:10:06.387Z,88.29
2019-03-11T04:11:06.363Z,88.09
2019-03-11T04:12:06.348Z,87.66
2019-03-11T04:13:06.335Z,88.19
2019-03-11T04:14:06.376Z,87.77
2019-03-11T04:15:06.389Z,88.50
2019-03-11T04:16:06.311Z,87.94
2019-03-11T04:17:06.296Z,87.32
2019-03-11T04:18:06.338Z,87.21
2019-03-11T04:19:06.270Z,88.15
2019-03-11T04:20:06.262Z,87.66
2019-03-11T04:21:06.256Z,87.25
2019-03-11T04:22:06.237Z,87.42
2019-03-11T04:23:06.293Z,87.84
2019-03-11T04:24:06.212Z,87.04
2019-03-11T04:25:06.214Z,87.11
2019-03-11T04:26:06.196Z,87.15
2019-03-11T04:27:06.185Z,87.66
2019-03-11T04:28:06.192Z,87.88
2019-03-11T04:29:06.161Z,88.60
2019-03-11T04:30:06.152Z,88.09
2019-03-11T04:31:06.137Z,88.71
2019-03-11T04:32:06.164Z,88.50
2019-03-11T04:33:06.145Z,88.09
2019-03-11T04:34:06.109Z,87.98
2019-03-11T04:35:06.094Z,88.81
2019-03-11T04:36:06.080Z,88.60
2019-03-11T04:37:06.068Z,87.66
2019-03-11T04:38:06.093Z,88.50
2019-03-11T04:39:06.103Z,88.09
2019-03-11T04:40:06.040Z,88.81
2019-03-11T04:41:06.032Z,88.71
2019-03-11T04:42:06.024Z,88.92
2019-03-11T04:43:06.011Z,88.71
2019-03-11T04:44:06.953Z,88.40
2019-03-11T04:45:05.990Z,89.12
2019-03-11T04:46:05.985Z,88.29
2019-03-11T04:47:05.962Z,88.50
2019-03-11T04:48:05.983Z,88.81
2019-03-11T04:49:05.951Z,88.67
2019-03-11T04:50:05.934Z,88.29
2019-03-11T04:51:05.943Z,88.56
2019-03-11T04:52:06.025Z,88.67
2019-03-11T04:53:05.908Z,88.25
2019-03-11T04:54:05.891Z,87.21
2019-03-11T04:55:05.886Z,87.21
2019-03-11T04:56:05.885Z,87.63
2019-03-11T04:57:05.856Z,87.21
2019-03-11T04:58:05.865Z,86.59
2019-03-11T04:59:05.831Z,86.94
2019-03-11T05:00:05.828Z,87.77
2019-03-11T05:01:05.832Z,88.09
2019-03-11T05:02:05.815Z,88.56
2019-03-11T05:03:05.832Z,88.40
2019-03-11T05:04:05.780Z,88.92
2019-03-11T05:05:05.773Z,87.21
2019-03-11T05:06:05.759Z,88.71
2019-03-11T05:07:05.753Z,88.40
2019-03-11T05:08:05.738Z,88.19
2019-03-11T05:09:05.739Z,88.29
2019-03-11T05:10:05.737Z,87.46
2019-03-11T05:11:05.748Z,88.29
2019-03-11T05:12:05.703Z,88.81
2019-03-11T05:13:05.695Z,87.66
2019-03-11T05:14:05.678Z,88.50
2019-03-11T05:15:05.670Z,88.60
2019-03-11T05:16:05.652Z,87.66
2019-03-11T05:17:05.638Z,88.15
2019-03-11T05:18:05.639Z,87.98
2019-03-11T05:19:05.614Z,87.98
2019-03-11T05:20:05.636Z,88.04
2019-03-11T05:21:05.593Z,88.40
2019-03-11T05:22:05.620Z,87.98
2019-03-11T05:23:05.592Z,89.33
2019-03-11T05:24:05.578Z,88.40
2019-03-11T05:25:06.615Z,88.35
2019-03-11T05:26:05.551Z,87.63
2019-03-11T05:27:05.532Z,88.29
2019-03-11T05:28:05.528Z,88.04
2019-03-11T05:29:05.530Z,87.94
2019-03-11T05:30:05.511Z,88.25
2019-03-11T05:31:05.506Z,88.42
2019-03-11T05:32:05.490Z,88.04
2019-03-11T05:33:05.507Z,88.67
2019-03-11T05:34:05.462Z,87.42
2019-03-11T05:35:05.447Z,86.96
2019-03-11T05:36:05.458Z,86.59
2019-03-11T05:37:05.443Z,86.96
2019-03-11T05:38:05.437Z,86.76
2019-03-11T05:39:05.412Z,87.38
2019-03-11T05:40:05.403Z,87.27
2019-03-11T05:41:05.385Z,86.76
2019-03-11T05:42:05.388Z,86.65
2019-03-11T05:43:05.408Z,86.44
2019-03-11T05:44:05.354Z,86.38
2019-03-11T05:45:05.346Z,87.07
2019-03-11T05:46:05.346Z,86.34
2019-03-11T05:47:05.326Z,86.55
2019-03-11T05:48:05.324Z,86.34
2019-03-11T05:49:05.311Z,87.11
2019-03-11T05:50:05.291Z,86.55
2019-03-11T05:51:05.277Z,86.44
2019-03-11T05:52:05.265Z,86.76
2019-03-11T05:53:05.268Z,86.34
2019-03-11T05:54:05.247Z,86.65
2019-03-11T05:55:05.235Z,85.93
2019-03-11T05:56:05.222Z,86.24
2019-03-11T05:57:05.221Z,86.44
2019-03-11T05:58:05.203Z,86.55
2019-03-11T05:59:05.200Z,86.44
2019-03-11T06:00:05.184Z,85.20
2019-03-11T06:01:05.176Z,85.61
2019-03-11T06:02:05.154Z,85.72
2019-03-11T06:03:05.142Z,84.16
2019-03-11T06:04:05.197Z,83.91
2019-03-11T06:05:05.132Z,84.27
2019-03-11T06:06:05.122Z,84.58
2019-03-11T06:07:05.196Z,84.37
2019-03-11T06:08:05.103Z,83.12
2019-03-11T06:09:05.085Z,83.08
2019-03-11T06:10:05.092Z,84.22
2019-03-11T06:11:05.091Z,82.70
2019-03-11T06:12:17.167Z,83.18
2019-03-11T06:13:11.966Z,83.53
2019-03-11T06:14:05.041Z,83.70
2019-03-11T06:15:05.012Z,83.39
2019-03-11T06:16:05.012Z,82.67
2019-03-11T06:17:05.016Z,82.46
2019-03-11T06:18:05.034Z,83.50
2019-03-11T06:19:04.977Z,83.39
2019-03-11T06:20:04.969Z,81.84
2019-03-11T06:21:04.955Z,82.35
2019-03-11T06:22:04.948Z,81.52
2019-03-11T06:23:04.935Z,81.84
2019-03-11T06:24:04.942Z,82.04
2019-03-11T06:25:04.916Z,81.46
2019-03-11T06:26:04.912Z,81.73
2019-03-11T06:27:04.890Z,81.73
2019-03-11T06:28:04.892Z,81.21
2019-03-11T06:29:04.878Z,81.63
2019-03-11T06:30:04.901Z,81.32
2019-03-11T06:31:04.881Z,81.63
2019-03-11T06:32:04.842Z,81.52
2019-03-11T06:33:04.833Z,81.32
2019-03-11T06:34:04.847Z,81.21
2019-03-11T06:35:04.804Z,81.94
2019-03-11T06:36:04.809Z,81.94
2019-03-11T06:37:04.791Z,81.73
2019-03-11T06:38:04.808Z,81.42
2019-03-11T06:39:06.077Z,80.18
2019-03-11T06:40:04.780Z,80.49
2019-03-11T06:41:04.750Z,81.07
2019-03-11T06:42:04.750Z,81.21
2019-03-11T06:43:04.744Z,81.52
2019-03-11T06:44:04.707Z,81.52
2019-03-11T06:45:04.707Z,80.87
2019-03-11T06:46:04.692Z,80.69
2019-03-11T06:47:04.684Z,80.87
2019-03-11T06:48:04.666Z,81.11
2019-03-11T06:49:04.657Z,81.28
2019-03-11T06:50:04.643Z,80.45
2019-03-11T06:51:04.629Z,81.11
2019-03-11T06:52:04.628Z,80.87
2019-03-11T06:53:04.638Z,80.14
2019-03-11T06:54:04.615Z,80.35
2019-03-11T06:55:04.601Z,80.45
2019-03-11T06:56:04.595Z,79.61
2019-03-11T06:57:04.569Z,79.83
2019-03-11T06:58:04.572Z,80.97
2019-03-11T06:59:04.556Z,80.14
2019-03-11T07:00:04.549Z,80.66
2019-03-11T07:01:04.540Z,80.35
2019-03-11T07:02:04.523Z,79.72
2019-03-11T07:03:04.579Z,80.55
2019-03-11T07:04:04.504Z,80.87
2019-03-11T07:05:04.507Z,80.66
2019-03-11T07:06:04.474Z,79.90
2019-03-11T07:07:04.466Z,80.73
2019-03-11T07:08:04.452Z,80.00
2019-03-11T07:09:04.434Z,79.27
2019-03-11T07:10:04.423Z,78.23
2019-03-11T07:11:04.423Z,79.69
2019-03-11T07:12:04.420Z,80.00
2019-03-11T07:13:04.398Z,79.38
2019-03-11T07:14:04.382Z,79.38
2019-03-11T07:15:04.384Z,79.69
2019-03-11T07:16:04.375Z,80.06
2019-03-11T07:17:04.376Z,79.34
2019-03-11T07:18:04.332Z,78.72
2019-03-11T07:19:04.336Z,78.51
2019-03-11T07:20:04.340Z,78.92
2019-03-11T07:21:04.314Z,79.03
2019-03-11T07:22:04.309Z,78.09
2019-03-11T07:23:04.289Z,77.89
2019-03-11T07:24:04.274Z,78.82
2019-03-11T07:25:04.278Z,79.34
2019-03-11T07:26:04.256Z,79.34
2019-03-11T07:27:04.253Z,78.65
2019-03-11T07:28:04.246Z,78.82
2019-03-11T07:29:04.239Z,78.51
2019-03-11T07:30:04.220Z,77.89
2019-03-11T07:31:04.208Z,77.47
2019-03-11T07:32:04.182Z,77.30
2019-03-11T07:33:06.880Z,77.82
2019-03-11T07:34:04.175Z,78.96
2019-03-11T07:35:08.531Z,78.65
2019-03-11T07:36:04.192Z,77.78
2019-03-11T07:37:04.198Z,77.68
2019-03-11T07:38:04.266Z,77.47
2019-03-11T07:39:04.122Z,78.51
2019-03-11T07:40:04.112Z,77.99
2019-03-11T07:41:04.091Z,77.89
2019-03-11T07:42:04.102Z,78.20
2019-03-11T07:43:04.064Z,77.37
2019-03-11T07:44:04.087Z,77.58
2019-03-11T07:45:04.048Z,77.68
2019-03-11T07:46:04.040Z,77.26
2019-03-11T07:47:04.021Z,77.54
2019-03-11T07:48:04.034Z,77.44
2019-03-11T07:49:03.996Z,76.09
2019-03-11T07:50:03.991Z,76.61
2019-03-11T07:51:03.987Z,77.64
2019-03-11T07:52:03.964Z,76.64
2019-03-11T07:53:03.958Z,76.23
2019-03-11T07:54:03.942Z,77.37
2019-03-11T07:55:03.932Z,77.47
2019-03-11T07:56:03.913Z,77.78
2019-03-11T07:57:03.904Z,77.78
2019-03-11T07:58:03.898Z,77.37
2019-03-11T07:59:03.892Z,77.68
2019-03-11T08:00:03.879Z,77.58
2019-03-11T08:01:03.858Z,78.20
2019-03-11T08:02:03.851Z,77.72
2019-03-11T08:03:03.849Z,77.89
2019-03-11T08:04:03.833Z,77.68
2019-03-11T08:05:03.812Z,78.82
2019-03-11T08:06:03.807Z,78.72
2019-03-11T08:07:03.802Z,77.47
2019-03-11T08:08:03.830Z,76.54
2019-03-11T08:09:03.842Z,77.06
2019-03-11T08:10:03.774Z,76.43
2019-03-11T08:11:03.750Z,75.92
2019-03-11T08:12:03.746Z,76.23
2019-03-11T08:13:03.728Z,75.81
2019-03-11T08:14:03.730Z,76.26
2019-03-11T08:15:03.710Z,76.26
2019-03-11T08:16:03.705Z,76.57
2019-03-11T08:17:03.685Z,76.75
2019-03-11T08:18:03.694Z,77.47
2019-03-11T08:19:03.722Z,77.37
2019-03-11T08:20:03.699Z,76.95
2019-03-11T08:21:03.712Z,76.12
2019-03-11T08:22:03.630Z,76.64
2019-03-11T08:23:03.617Z,76.23
2019-03-11T08:24:03.640Z,75.50
2019-03-11T08:25:03.683Z,75.40
2019-03-11T08:26:03.641Z,75.50
2019-03-11T08:27:03.641Z,76.23
2019-03-11T08:28:03.564Z,75.40
2019-03-11T08:29:03.883Z,74.77
2019-03-11T08:30:03.544Z,75.50
2019-03-11T08:31:03.533Z,74.67
2019-03-11T08:32:03.536Z,76.12
2019-03-11T08:33:03.526Z,74.67
2019-03-11T08:34:03.507Z,75.09
2019-03-11T08:35:05.992Z,74.88
2019-03-11T08:36:03.478Z,75.40
2019-03-11T08:37:03.464Z,75.29
2019-03-11T08:38:05.257Z,73.91
2019-03-11T08:39:03.451Z,75.09
2019-03-11T08:40:03.441Z,74.88
2019-03-11T08:41:03.436Z,74.77
2019-03-11T08:42:03.419Z,74.67
2019-03-11T08:43:03.399Z,74.98
2019-03-11T08:44:03.393Z,74.88
2019-03-11T08:45:03.380Z,75.29
2019-03-11T08:46:03.371Z,75.71
2019-03-11T08:47:03.367Z,76.02
2019-03-11T08:48:03.346Z,75.46
2019-03-11T08:49:03.330Z,75.05
2019-03-11T08:50:03.318Z,74.32
2019-03-11T08:51:03.312Z,74.88
2019-03-11T08:52:05.329Z,74.88
2019-03-11T08:53:03.294Z,75.40
2019-03-11T08:54:03.271Z,74.98
2019-03-11T08:55:03.267Z,74.15
2019-03-11T08:56:03.281Z,74.26
2019-03-11T08:57:03.237Z,75.29
2019-03-11T08:58:03.239Z,74.98
2019-03-11T08:59:03.221Z,74.26
2019-03-11T09:00:03.221Z,74.88
2019-03-11T09:01:03.210Z,75.36
2019-03-11T09:02:03.185Z,74.67
2019-03-11T09:03:03.182Z,74.95
2019-03-11T09:04:03.167Z,74.43
2019-03-11T09:05:03.162Z,74.84
2019-03-11T09:06:03.160Z,73.28
2019-03-11T09:07:03.142Z,73.91
2019-03-11T09:08:03.155Z,74.01
2019-03-11T09:09:03.118Z,74.22
2019-03-11T09:10:03.102Z,73.70
2019-03-11T09:11:03.112Z,74.22
2019-03-11T09:12:03.081Z,74.22
2019-03-11T09:13:03.066Z,74.22
2019-03-11T09:14:03.063Z,74.53
2019-03-11T09:15:03.058Z,74.22
2019-03-11T09:16:03.091Z,74.43
2019-03-11T09:17:03.027Z,73.91
2019-03-11T09:18:03.024Z,74.22
2019-03-11T09:19:03.021Z,74.74
2019-03-11T09:20:03.000Z,73.60
2019-03-11T09:21:04.958Z,73.28
2019-03-11T09:22:02.975Z,74.01
2019-03-11T09:23:02.955Z,74.22
2019-03-11T09:24:02.937Z,72.98
2019-03-11T09:25:02.938Z,72.56
2019-03-11T09:26:02.933Z,71.63
2019-03-11T09:27:02.926Z,72.15
2019-03-11T09:28:02.900Z,70.97
2019-03-11T09:29:02.912Z,71.18
2019-03-11T09:30:02.897Z,71.63
2019-03-11T09:31:02.887Z,72.05
2019-03-11T09:32:02.871Z,71.39
2019-03-11T09:33:02.850Z,71.39
2019-03-11T09:34:02.906Z,71.59
2019-03-11T09:35:02.839Z,71.18
2019-03-11T09:36:02.811Z,71.39
2019-03-11T09:37:02.812Z,71.28
2019-03-11T09:38:03.943Z,71.49
2019-03-11T09:39:02.789Z,70.97
2019-03-11T09:40:02.776Z,71.49
2019-03-11T09:41:02.783Z,70.87
2019-03-11T09:42:02.755Z,71.25
2019-03-11T09:43:02.737Z,71.04
2019-03-11T09:44:02.738Z,71.67
2019-03-11T09:45:02.720Z,70.42
2019-03-11T09:46:02.712Z,70.73
2019-03-11T09:47:02.691Z,70.53
2019-03-11T09:48:02.701Z,69.77
2019-03-11T09:49:02.684Z,69.49
2019-03-11T09:50:02.663Z,70.01
2019-03-11T09:51:02.653Z,69.15
2019-03-11T09:52:02.660Z,69.35
2019-03-11T09:53:02.632Z,69.67
2019-03-11T09:54:02.619Z,70.47
2019-03-11T09:55:02.658Z,68.49
2019-03-11T09:56:02.679Z,68.91
2019-03-11T09:57:02.598Z,68.40
2019-03-11T09:58:02.567Z,68.49
2019-03-11T09:59:02.553Z,68.26
2019-03-11T10:00:02.555Z,67.77
2019-03-11T10:01:02.555Z,68.77
2019-03-11T10:02:02.535Z,68.05
2019-03-11T10:03:02.517Z,68.29
2019-03-11T10:04:02.501Z,67.88
2019-03-11T10:05:02.488Z,68.40
2019-03-11T10:06:02.494Z,68.84
2019-03-11T10:07:02.479Z,69.35
2019-03-11T10:08:02.567Z,69.74
2019-03-11T10:09:02.440Z,68.91
2019-03-11T10:10:02.435Z,69.25
2019-03-11T10:11:02.434Z,69.46
2019-03-11T10:12:02.422Z,69.15
2019-03-11T10:13:02.417Z,69.77
2019-03-11T10:14:02.409Z,70.18
2019-03-11T10:15:02.392Z,69.98
2019-03-11T10:16:02.369Z,69.67
2019-03-11T10:17:02.366Z,70.05
2019-03-11T10:18:02.369Z,71.01
2019-03-11T10:19:02.349Z,71.12
2019-03-11T10:20:02.356Z,71.12
2019-03-11T10:21:02.322Z,71.12
2019-03-11T10:22:02.307Z,71.94
2019-03-11T10:23:02.321Z,72.08
2019-03-11T10:24:02.303Z,72.08
2019-03-11T10:25:02.279Z,73.32
2019-03-11T10:26:02.277Z,73.22
2019-03-11T10:27:02.248Z,74.26
2019-03-11T10:28:02.239Z,74.57
2019-03-11T10:29:02.228Z,74.46
2019-03-11T10:30:02.225Z,74.46
2019-03-11T10:31:02.223Z,74.08
2019-03-11T10:32:02.193Z,75.12
2019-03-11T10:33:02.188Z,74.91
2019-03-11T10:34:02.263Z,74.29
2019-03-11T10:35:02.182Z,73.88
2019-03-11T10:36:02.157Z,75.02
2019-03-11T10:37:02.150Z,75.02
2019-03-11T10:38:02.126Z,74.46
2019-03-11T10:39:02.187Z,74.57
2019-03-11T10:40:02.116Z,74.36
2019-03-11T10:41:02.104Z,74.88
2019-03-11T10:42:02.096Z,74.26
2019-03-11T10:43:02.083Z,73.60
2019-03-11T10:44:02.090Z,74.12
2019-03-11T10:45:02.073Z,74.12
2019-03-11T10:46:02.038Z,74.12
2019-03-11T10:47:02.044Z,73.81
2019-03-11T10:48:02.031Z,73.91
2019-03-11T10:49:02.052Z,72.77
2019-03-11T10:50:01.997Z,72.77
2019-03-11T10:51:02.060Z,72.36
2019-03-11T10:52:01.975Z,72.67
2019-03-11T10:53:01.975Z,73.81
2019-03-11T10:54:01.956Z,73.50
2019-03-11T10:55:01.965Z,73.71
2019-03-11T10:56:01.955Z,73.08
2019-03-11T10:57:01.934Z,73.15
2019-03-11T10:58:01.930Z,72.22
2019-03-11T10:59:01.910Z,72.15
2019-03-11T11:00:01.895Z,72.05
2019-03-11T11:01:01.880Z,73.29
2019-03-11T11:02:01.867Z,73.60
2019-03-11T11:03:01.908Z,73.29
2019-03-11T11:04:01.846Z,74.63
2019-03-11T11:05:01.837Z,74.22
2019-03-11T11:06:01.841Z,74.84
2019-03-11T11:07:01.824Z,75.67
2019-03-11T11:08:01.812Z,75.46
2019-03-11T11:09:01.793Z,75.36
2019-03-11T11:10:01.809Z,75.88
2019-03-11T11:11:01.781Z,76.43
2019-03-11T11:12:01.772Z,77.61
2019-03-11T11:13:01.747Z,77.71
2019-03-11T11:14:01.763Z,79.27
2019-03-11T11:15:01.727Z,79.37
2019-03-11T11:16:01.716Z,80.96
2019-03-11T11:17:01.744Z,81.16
2019-03-11T11:18:01.739Z,80.85
2019-03-11T11:19:01.694Z,81.48
2019-03-11T11:20:03.631Z,81.58
2019-03-11T11:21:01.654Z,81.89
2019-03-11T11:22:01.654Z,80.75
2019-03-11T11:23:01.679Z,81.06
2019-03-11T11:24:01.671Z,81.68
2019-03-11T11:25:01.638Z,82.10
2019-03-11T11:26:01.611Z,81.58
2019-03-11T11:27:01.598Z,81.48
2019-03-11T11:28:01.591Z,81.68
2019-03-11T11:29:01.568Z,81.37
2019-03-11T11:30:01.560Z,81.27
2019-03-11T11:31:01.560Z,81.37
2019-03-11T11:32:01.577Z,80.89
2019-03-11T11:33:01.535Z,80.99
2019-03-11T11:34:01.595Z,81.20
2019-03-11T11:35:01.507Z,81.20
2019-03-11T11:36:01.520Z,82.34
2019-03-11T11:37:01.498Z,83.11
2019-03-11T11:38:01.522Z,83.28
2019-03-11T11:39:01.479Z,83.32
2019-03-11T11:40:01.500Z,84.77
2019-03-11T11:41:01.446Z,82.34
2019-03-11T11:42:01.427Z,83.80
2019-03-11T11:43:01.424Z,86.49
2019-03-11T11:44:01.411Z,83.59
2019-03-11T11:45:01.406Z,84.11
2019-03-11T11:46:01.383Z,84.11
2019-03-11T11:47:01.378Z,83.28
2019-03-11T11:48:01.371Z,84.77
2019-03-11T11:49:01.350Z,84.77
2019-03-11T11:50:01.515Z,84.25
2019-03-11T11:51:01.338Z,84.46
2019-03-11T11:52:01.316Z,84.25
2019-03-11T11:53:01.306Z,83.32
2019-03-11T11:54:01.313Z,83.22
2019-03-11T11:55:01.295Z,84.56
2019-03-11T11:56:01.279Z,84.39
2019-03-11T11:57:01.275Z,84.81
2019-03-11T11:58:01.248Z,85.39
2019-03-11T11:59:01.245Z,86.16
2019-03-11T12:00:01.300Z,85.12
2019-03-11T12:01:01.233Z,86.12
2019-03-11T12:02:04.146Z,85.50
2019-03-11T12:03:01.195Z,85.08
2019-03-11T12:04:01.210Z,84.56
2019-03-11T12:05:01.180Z,83.73
2019-03-11T12:06:01.162Z,84.77
2019-03-11T12:07:01.155Z,85.19
2019-03-11T12:08:01.160Z,84.36
2019-03-11T12:09:01.132Z,85.14
2019-03-11T12:10:01.128Z,84.15
2019-03-11T12:11:01.114Z,84.46
2019-03-11T12:12:01.096Z,84.73
2019-03-11T12:13:01.110Z,85.14
2019-03-11T12:14:01.072Z,84.94
2019-03-11T12:15:01.089Z,84.11
2019-03-11T12:16:01.066Z,83.07
2019-03-11T12:17:01.050Z,84.11
2019-03-11T12:18:01.042Z,83.69
2019-03-11T12:19:01.040Z,83.28
2019-03-11T12:20:01.009Z,83.28
2019-03-11T12:21:01.000Z,83.07
2019-03-11T12:22:01.001Z,82.45
2019-03-11T12:23:00.973Z,83.01
2019-03-11T12:24:00.969Z,83.94
2019-03-11T12:25:01.006Z,84.15
2019-03-11T12:26:00.941Z,84.88
2019-03-11T12:27:00.942Z,85.66
2019-03-11T12:28:00.942Z,84.94
2019-03-11T12:29:00.909Z,84.52
2019-03-11T12:30:00.907Z,85.25
2019-03-11T12:31:00.899Z,83.48
2019-03-11T12:32:00.883Z,82.55
2019-03-11T12:33:00.891Z,83.65
2019-03-11T12:34:00.873Z,84.59
2019-03-11T12:35:00.845Z,83.14
2019-03-11T12:36:00.849Z,82.41
2019-03-11T12:37:00.826Z,82.62
2019-03-11T12:38:00.841Z,83.34
2019-03-11T12:39:00.802Z,83.86
2019-03-11T12:40:00.843Z,83.97
2019-03-11T12:41:00.782Z,83.14
2019-03-11T12:42:00.770Z,83.45
2019-03-11T12:43:00.755Z,82.31
2019-03-11T12:44:00.753Z,82.41
2019-03-11T12:45:00.736Z,82.72
2019-03-11T12:46:00.729Z,83.14
2019-03-11T12:47:00.720Z,82.41
2019-03-11T12:48:00.716Z,83.14
2019-03-11T12:49:00.702Z,83.86
2019-03-11T12:50:00.693Z,83.86
2019-03-11T12:51:00.684Z,82.82
2019-03-11T12:52:00.656Z,83.45